createdAt,value
2024-04-18T00:01:01.943Z,101721.06
2024-04-18T00:03:28.762Z,101724.75
2024-04-18T00:05:55.508Z,101727.41
2024-04-18T00:08:22.278Z,101732.75
2024-04-18T00:10:53.259Z,101729.63
2024-04-18T00:13:20.027Z,101740.97
2024-04-18T00:15:46.694Z,101736.69
2024-04-18T00:18:13.473Z,101735.03
2024-04-18T00:20:40.114Z,101740.34
2024-04-18T00:23:06.727Z,101742.97
2024-04-18T00:25:36.475Z,101745.47
2024-04-18T00:28:03.205Z,101738.53
2024-04-18T00:30:29.871Z,101741.19
2024-04-18T00:32:56.600Z,101748.06
2024-04-18T00:35:23.265Z,101743.56
2024-04-18T00:37:49.922Z,101752.47
2024-04-18T00:40:16.740Z,101747.31
2024-04-18T00:42:43.387Z,101756.00
2024-04-18T00:45:10.390Z,101752.56
2024-04-18T00:47:38.083Z,101749.25
2024-04-18T00:50:08.376Z,101751.97
2024-04-18T00:52:35.061Z,101755.41
2024-04-18T00:55:04.383Z,101756.41
2024-04-18T00:57:33.508Z,101761.78
2024-04-18T01:00:00.864Z,101760.13
2024-04-18T01:02:30.346Z,101762.78
2024-04-18T01:04:58.535Z,101764.66
2024-04-18T01:07:25.873Z,101763.00
2024-04-18T01:09:52.598Z,101769.16
2024-04-18T01:12:19.318Z,101778.88
2024-04-18T01:14:46.014Z,101771.88
2024-04-18T01:17:12.763Z,101775.47
2024-04-18T01:19:40.002Z,101778.16
2024-04-18T01:22:06.879Z,101777.44
2024-04-18T01:24:34.079Z,101779.16
2024-04-18T01:27:00.972Z,101785.41
2024-04-18T01:29:28.304Z,101787.34
2024-04-18T01:31:55.139Z,101786.47
2024-04-18T01:34:22.023Z,101792.59
2024-04-18T01:36:49.671Z,101788.41
2024-04-18T01:39:16.855Z,101799.22
2024-04-18T01:41:43.851Z,101795.00
2024-04-18T01:44:11.672Z,101800.22
2024-04-18T01:46:38.320Z,101803.97
2024-04-18T01:49:05.018Z,101811.09
2024-04-18T01:51:31.680Z,101811.19
2024-04-18T01:53:58.406Z,101806.03
2024-04-18T01:56:25.064Z,101814.97
2024-04-18T01:58:51.822Z,101816.84
2024-04-18T02:01:24.207Z,101820.56
2024-04-18T02:03:51.166Z,101822.41
2024-04-18T02:06:17.848Z,101822.59
2024-04-18T02:08:44.548Z,101830.56
2024-04-18T02:11:11.211Z,101827.16
2024-04-18T02:13:37.968Z,101828.09
2024-04-18T02:16:05.328Z,101831.59
2024-04-18T02:18:32.039Z,101833.34
2024-04-18T02:20:58.693Z,101838.75
2024-04-18T02:23:25.350Z,101840.56
2024-04-18T02:25:52.048Z,101839.75
2024-04-18T02:28:18.752Z,101846.78
2024-04-18T02:30:45.533Z,101852.16
2024-04-18T02:33:17.040Z,101847.03
2024-04-18T02:35:44.058Z,101847.09
2024-04-18T02:38:11.799Z,101846.34
2024-04-18T02:40:38.685Z,101855.16
2024-04-18T02:43:05.312Z,101844.75
2024-04-18T02:45:32.164Z,101852.66
2024-04-18T02:47:58.889Z,101849.25
2024-04-18T02:50:25.584Z,101857.19
2024-04-18T02:52:52.325Z,101866.91
2024-04-18T02:55:18.985Z,101867.91
2024-04-18T02:57:45.909Z,101870.59
2024-04-18T03:00:12.828Z,101875.03
2024-04-18T03:02:39.994Z,101871.59
2024-04-18T03:05:06.759Z,101885.69
2024-04-18T03:07:33.422Z,101888.34
2024-04-18T03:10:00.023Z,101890.06
2024-04-18T03:12:27.301Z,101898.63
2024-04-18T03:14:53.963Z,101894.03
2024-04-18T03:17:20.659Z,101899.91
2024-04-18T03:19:47.338Z,101900.53
2024-04-18T03:22:14.185Z,101899.44
2024-04-18T03:24:40.901Z,101901.06
2024-04-18T03:27:07.559Z,101899.16
2024-04-18T03:29:34.192Z,101899.31
2024-04-18T03:32:03.401Z,101898.47
2024-04-18T03:34:30.261Z,101899.63
2024-04-18T03:36:59.946Z,101902.38
2024-04-18T03:39:29.856Z,101909.22
2024-04-18T03:41:56.562Z,101911.53
2024-04-18T03:44:23.251Z,101910.56
2024-04-18T03:46:49.944Z,101915.94
2024-04-18T03:49:16.870Z,101911.75
2024-04-18T03:51:43.561Z,101919.78
2024-04-18T03:54:10.426Z,101920.72
2024-04-18T03:56:37.110Z,101921.69
2024-04-18T03:59:03.782Z,101925.19
2024-04-18T04:01:31.120Z,101930.25
2024-04-18T04:03:58.249Z,101926.84
2024-04-18T04:06:25.252Z,101926.75
2024-04-18T04:08:51.968Z,101930.19
2024-04-18T04:11:19.610Z,101932.78
2024-04-18T04:13:46.484Z,101932.16
2024-04-18T04:16:13.140Z,101937.78
2024-04-18T04:18:39.980Z,101945.75
2024-04-18T04:21:09.076Z,101940.44
2024-04-18T04:23:36.185Z,101940.72
2024-04-18T04:26:02.960Z,101948.69
2024-04-18T04:28:29.585Z,101953.25
2024-04-18T04:30:56.238Z,101954.09
2024-04-18T04:33:23.091Z,101964.66
2024-04-18T04:35:49.759Z,101970.06
2024-04-18T04:38:16.452Z,101970.13
2024-04-18T04:40:43.123Z,101972.75
2024-04-18T04:43:09.770Z,101968.41
2024-04-18T04:45:36.459Z,101971.94
2024-04-18T04:48:06.429Z,101974.56
2024-04-18T04:50:33.217Z,101979.94
2024-04-18T04:52:59.889Z,101990.41
2024-04-18T04:55:26.506Z,101985.16
2024-04-18T04:57:53.212Z,101993.00
2024-04-18T05:00:20.005Z,101997.47
2024-04-18T05:02:48.756Z,102003.59
2024-04-18T05:05:16.540Z,102003.47
2024-04-18T05:07:43.158Z,102006.03
2024-04-18T05:10:09.854Z,102002.56
2024-04-18T05:12:36.500Z,102016.56
2024-04-18T05:15:03.440Z,102013.97
2024-04-18T05:17:30.261Z,102017.41
2024-04-18T05:19:56.913Z,102026.94
2024-04-18T05:22:23.644Z,102025.91
2024-04-18T05:24:50.286Z,102020.47
2024-04-18T05:27:16.988Z,102028.97
2024-04-18T05:30:02.356Z,102036.97
2024-04-18T05:32:29.171Z,102044.84
2024-04-18T05:34:55.982Z,102046.50
2024-04-18T05:37:23.324Z,102055.00
2024-04-18T05:39:50.610Z,102054.78
2024-04-18T05:42:17.534Z,102052.00
2024-04-18T05:44:44.309Z,102054.25
2024-04-18T05:47:11.073Z,102064.16
2024-04-18T05:49:37.852Z,102066.22
2024-04-18T05:52:04.902Z,102060.28
2024-04-18T05:54:32.725Z,102056.19
2024-04-18T05:56:59.455Z,102060.94
2024-04-18T05:59:26.143Z,102060.00
2024-04-18T06:01:52.976Z,102060.16
2024-04-18T06:04:19.809Z,102061.19
2024-04-18T06:06:47.338Z,102067.38
2024-04-18T06:09:14.052Z,102070.81
2024-04-18T06:11:44.635Z,102077.69
2024-04-18T06:14:11.450Z,102075.78
2024-04-18T06:16:38.639Z,102087.75
2024-04-18T06:19:05.392Z,102075.25
2024-04-18T06:21:32.230Z,102089.75
2024-04-18T06:23:58.952Z,102086.09
2024-04-18T06:26:25.678Z,102088.50
2024-04-18T06:28:52.682Z,102091.75
2024-04-18T06:31:19.816Z,102105.47
2024-04-18T06:33:47.619Z,102099.81
2024-04-18T06:36:14.394Z,102107.03
2024-04-18T06:38:41.239Z,102116.22
2024-04-18T06:41:08.008Z,102103.91
2024-04-18T06:43:34.787Z,102113.56
2024-04-18T06:46:02.049Z,102120.47
2024-04-18T06:48:28.946Z,102115.06
2024-04-18T06:50:55.754Z,102121.75
2024-04-18T06:53:22.600Z,102128.25
2024-04-18T06:55:49.346Z,102128.31
2024-04-18T06:58:16.091Z,102129.47
2024-04-18T07:00:43.367Z,102131.00
2024-04-18T07:03:13.272Z,102130.72
2024-04-18T07:05:40.554Z,102127.06
2024-04-18T07:08:07.379Z,102133.00
2024-04-18T07:10:37.157Z,102131.19
2024-04-18T07:13:04.432Z,102134.16
2024-04-18T07:15:31.133Z,102130.78
2024-04-18T07:17:58.601Z,102136.97
2024-04-18T07:20:26.796Z,102135.50
2024-04-18T07:22:54.509Z,102140.59
2024-04-18T07:25:21.425Z,102144.28
2024-04-18T07:27:49.646Z,102147.25
2024-04-18T07:30:17.222Z,102145.81
2024-04-18T07:32:44.604Z,102153.72
2024-04-18T07:35:11.338Z,102161.31
2024-04-18T07:37:38.081Z,102154.41
2024-04-18T07:40:13.711Z,102160.25
2024-04-18T07:42:40.455Z,102157.06
2024-04-18T07:45:07.273Z,102166.34
2024-04-18T07:47:34.177Z,102161.22
2024-04-18T07:50:01.328Z,102162.72
2024-04-18T07:52:28.172Z,102177.00
2024-04-18T07:54:55.012Z,102171.13
2024-04-18T07:57:22.189Z,102167.22
2024-04-18T07:59:50.398Z,102173.50
2024-04-18T08:02:20.255Z,102166.13
2024-04-18T08:04:55.411Z,102175.63
2024-04-18T08:07:29.067Z,102174.59
2024-04-18T08:10:01.085Z,102175.56
2024-04-18T08:12:34.769Z,102177.41
2024-04-18T08:15:08.723Z,102178.03
2024-04-18T08:17:40.465Z,102180.34
2024-04-18T08:20:07.942Z,102180.94
2024-04-18T08:22:35.454Z,102179.31
2024-04-18T08:25:04.335Z,102169.22
2024-04-18T08:27:31.175Z,102169.69
2024-04-18T08:29:57.954Z,102177.50
2024-04-18T08:32:24.905Z,102170.56
2024-04-18T08:34:51.754Z,102180.13
2024-04-18T08:37:18.525Z,102179.66
2024-04-18T08:39:45.178Z,102178.88
2024-04-18T08:42:13.835Z,102179.94
2024-04-18T08:44:40.981Z,102185.66
2024-04-18T08:47:10.277Z,102198.88
2024-04-18T08:49:39.503Z,102193.69
2024-04-18T08:52:07.902Z,102195.34
2024-04-18T08:54:35.248Z,102200.91
2024-04-18T08:57:05.764Z,102194.13
2024-04-18T08:59:34.043Z,102201.69
2024-04-18T09:02:01.757Z,102199.38
2024-04-18T09:04:29.093Z,102193.84
2024-04-18T09:06:55.814Z,102194.03
2024-04-18T09:09:25.802Z,102189.97
2024-04-18T09:11:52.582Z,102193.56
2024-04-18T09:14:19.289Z,102191.06
2024-04-18T09:16:46.189Z,102191.59
2024-04-18T09:19:13.918Z,102189.16
2024-04-18T09:21:41.274Z,102203.66
2024-04-18T09:24:08.094Z,102201.72
2024-04-18T09:26:34.902Z,102202.72
2024-04-18T09:29:01.846Z,102208.13
2024-04-18T09:31:37.709Z,102208.31
2024-04-18T09:34:10.647Z,102210.38
2024-04-18T09:36:41.241Z,102204.94
2024-04-18T09:39:12.052Z,102199.97
2024-04-18T09:41:44.386Z,102196.00
2024-04-18T09:44:22.190Z,102211.00
2024-04-18T09:46:51.902Z,102214.13
2024-04-18T09:49:19.941Z,102207.72
2024-04-18T09:51:48.220Z,102203.56
2024-04-18T09:54:15.996Z,102200.66
2024-04-18T09:56:44.240Z,102202.97
2024-04-18T09:59:12.347Z,102202.59
2024-04-18T10:01:41.467Z,102206.56
2024-04-18T10:04:08.371Z,102197.88
2024-04-18T10:06:37.908Z,102193.84
2024-04-18T10:09:07.287Z,102191.88
2024-04-18T10:11:35.197Z,102202.34
2024-04-18T10:14:07.971Z,102206.34
2024-04-18T10:16:49.780Z,102212.66
2024-04-18T10:19:21.365Z,102210.28
2024-04-18T10:24:36.039Z,102205.09
2024-04-18T10:27:08.896Z,102200.75
2024-04-18T10:29:36.044Z,102199.25
2024-04-18T10:32:06.040Z,102203.81
2024-04-18T10:34:34.181Z,102216.03
2024-04-18T10:37:07.825Z,102210.28
2024-04-18T10:39:41.460Z,102210.56
2024-04-18T10:42:12.400Z,102211.84
2024-04-18T10:44:39.361Z,102214.97
2024-04-18T10:47:07.407Z,102218.78
2024-04-18T10:49:39.517Z,102216.47
2024-04-18T10:52:12.008Z,102212.94
2024-04-18T10:54:39.005Z,102216.50
2024-04-18T10:57:05.932Z,102213.94
2024-04-18T10:59:32.720Z,102210.78
2024-04-18T11:02:09.754Z,102207.66
2024-04-18T11:04:36.562Z,102213.88
2024-04-18T11:07:04.135Z,102215.28
2024-04-18T11:09:32.471Z,102206.38
2024-04-18T11:11:59.247Z,102209.03
2024-04-18T11:14:26.924Z,102211.75
2024-04-18T11:16:57.945Z,102210.50
2024-04-18T11:19:25.057Z,102204.78
2024-04-18T11:21:51.865Z,102200.97
2024-04-18T11:24:18.828Z,102206.34
2024-04-18T11:26:45.480Z,102203.69
2024-04-18T11:29:12.119Z,102198.44
2024-04-18T11:31:38.860Z,102202.13
2024-04-18T11:34:05.625Z,102197.25
2024-04-18T11:36:32.359Z,102194.53
2024-04-18T11:39:01.842Z,102193.81
2024-04-18T11:41:34.547Z,102195.66
2024-04-18T11:44:02.767Z,102189.47
2024-04-18T11:46:29.422Z,102196.50
2024-04-18T11:48:56.299Z,102193.84
2024-04-18T11:51:23.181Z,102205.47
2024-04-18T11:53:49.822Z,102203.25
2024-04-18T11:56:16.575Z,102196.03
2024-04-18T11:58:43.604Z,102202.91
2024-04-18T12:01:13.031Z,102190.78
2024-04-18T12:03:41.501Z,102194.28
2024-04-18T12:06:08.351Z,102196.31
2024-04-18T12:08:35.074Z,102205.13
2024-04-18T12:11:01.726Z,102193.19
2024-04-18T12:13:29.225Z,102191.16
2024-04-18T12:15:56.386Z,102201.91
2024-04-18T12:18:23.209Z,102195.63
2024-04-18T12:20:49.999Z,102196.88
2024-04-18T12:23:16.648Z,102210.88
2024-04-18T12:25:43.325Z,102210.56
2024-04-18T12:28:09.944Z,102220.97
2024-04-18T12:30:36.841Z,102210.59
2024-04-18T12:33:03.753Z,102214.22
2024-04-18T12:35:30.511Z,102208.31
2024-04-18T12:37:58.417Z,102203.56
2024-04-18T12:40:25.117Z,102196.50
2024-04-18T12:42:52.027Z,102198.78
2024-04-18T12:45:18.775Z,102195.88
2024-04-18T12:47:45.575Z,102197.19
2024-04-18T12:50:12.584Z,102203.44
2024-04-18T12:52:39.309Z,102201.31
2024-04-18T12:55:06.082Z,102198.50
2024-04-18T12:57:32.747Z,102199.19
2024-04-18T12:59:59.436Z,102188.72
2024-04-18T13:02:26.071Z,102191.38
2024-04-18T13:04:52.790Z,102196.13
2024-04-18T13:07:20.642Z,102202.09
2024-04-18T13:09:47.296Z,102200.31
2024-04-18T13:12:14.090Z,102203.75
2024-04-18T13:14:40.741Z,102203.06
2024-04-18T13:17:07.389Z,102196.09
2024-04-18T13:19:33.994Z,102203.28
2024-04-18T13:22:01.074Z,102196.31
2024-04-18T13:24:27.826Z,102198.19
2024-04-18T13:26:55.094Z,102184.47
2024-04-18T13:29:24.395Z,102191.53
2024-04-18T13:31:52.534Z,102184.59
2024-04-18T13:34:22.419Z,102183.13
2024-04-18T13:36:49.568Z,102176.81
2024-04-18T13:39:16.451Z,102190.34
2024-04-18T13:41:46.759Z,102190.13
2024-04-18T13:44:13.435Z,102195.06
2024-04-18T13:46:40.157Z,102196.06
2024-04-18T13:49:06.812Z,102196.31
2024-04-18T13:51:33.482Z,102192.41
2024-04-18T13:54:00.184Z,102196.50
2024-04-18T13:56:26.994Z,102187.09
2024-04-18T13:58:53.628Z,102189.28
2024-04-18T14:01:20.329Z,102182.97
2024-04-18T14:03:47.060Z,102182.50
2024-04-18T14:06:13.740Z,102179.69
2024-04-18T14:08:43.954Z,102175.91
2024-04-18T14:11:10.652Z,102178.28
2024-04-18T14:13:37.406Z,102174.81
2024-04-18T14:16:27.194Z,102168.88
2024-04-18T14:18:54.356Z,102164.53
2024-04-18T14:21:23.978Z,102164.19
2024-04-18T14:23:50.654Z,102169.44
2024-04-18T14:26:17.289Z,102180.34
2024-04-18T14:28:43.956Z,102174.91
2024-04-18T14:31:10.582Z,102175.47
2024-04-18T14:33:37.392Z,102168.47
2024-04-18T14:36:04.500Z,102172.06
2024-04-18T14:38:31.165Z,102177.78
2024-04-18T14:41:05.952Z,102163.72
2024-04-18T14:43:38.267Z,102157.28
2024-04-18T14:46:05.115Z,102168.53
2024-04-18T14:48:34.731Z,102169.78
2024-04-18T14:51:01.633Z,102161.88
2024-04-18T14:53:28.287Z,102159.88
2024-04-18T14:55:54.988Z,102173.75
2024-04-18T14:58:21.743Z,102154.72
2024-04-18T15:00:54.148Z,102157.03
2024-04-18T15:03:21.624Z,102150.41
2024-04-18T15:05:59.909Z,102149.75
2024-04-18T15:08:26.671Z,102142.66
2024-04-18T15:10:53.428Z,102145.59
2024-04-18T15:13:20.092Z,102148.94
2024-04-18T15:15:46.861Z,102139.47
2024-04-18T15:18:14.424Z,102146.84
2024-04-18T15:20:41.798Z,102148.69
2024-04-18T15:23:08.718Z,102151.53
2024-04-18T15:25:35.349Z,102149.91
2024-04-18T15:28:02.003Z,102152.75
2024-04-18T15:30:28.759Z,102157.81
2024-04-18T15:32:55.484Z,102156.94
2024-04-18T15:35:22.257Z,102166.28
2024-04-18T15:37:48.958Z,102162.84
2024-04-18T15:40:17.815Z,102155.63
2024-04-18T15:42:45.105Z,102152.34
2024-04-18T15:45:11.962Z,102155.53
2024-04-18T15:47:38.885Z,102155.00
2024-04-18T15:50:05.996Z,102154.59
2024-04-18T15:52:34.296Z,102151.00
2024-04-18T15:55:12.215Z,102147.16
2024-04-18T15:57:42.990Z,102155.19
2024-04-18T16:00:11.158Z,102151.44
2024-04-18T16:02:38.189Z,102154.00
2024-04-18T16:05:05.418Z,102154.75
2024-04-18T16:07:32.271Z,102161.72
2024-04-18T16:09:59.970Z,102160.50
2024-04-18T16:12:26.939Z,102151.63
2024-04-18T16:14:53.781Z,102149.75
2024-04-18T16:17:20.601Z,102153.03
2024-04-18T16:19:49.629Z,102145.25
2024-04-18T16:22:16.265Z,102149.19
2024-04-18T16:24:42.944Z,102147.66
2024-04-18T16:27:09.693Z,102145.56
2024-04-18T16:29:36.473Z,102148.50
2024-04-18T16:32:03.096Z,102150.59
2024-04-18T16:34:29.753Z,102145.41
2024-04-18T16:37:09.089Z,102145.78
2024-04-18T16:39:39.983Z,102144.94
2024-04-18T16:42:07.551Z,102148.53
2024-04-18T16:44:34.289Z,102142.69
2024-04-18T16:47:01.024Z,102144.00
2024-04-18T16:49:27.780Z,102142.81
2024-04-18T16:51:54.427Z,102140.28
2024-04-18T16:54:21.167Z,102139.50
2024-04-18T16:56:48.252Z,102131.69
2024-04-18T16:59:14.997Z,102138.63
2024-04-18T17:01:41.822Z,102139.81
2024-04-18T17:04:08.653Z,102142.69
2024-04-18T17:06:42.191Z,102140.50
2024-04-18T17:09:14.584Z,102137.84
2024-04-18T17:11:41.262Z,102134.34
2024-04-18T17:14:07.930Z,102134.13
2024-04-18T17:16:34.828Z,102124.63
2024-04-18T17:19:01.635Z,102118.53
2024-04-18T17:21:28.381Z,102112.31
2024-04-18T17:23:56.056Z,102103.81
2024-04-18T17:26:24.633Z,102109.97
2024-04-18T17:28:52.458Z,102108.88
2024-04-18T17:31:19.161Z,102109.53
2024-04-18T17:33:45.908Z,102101.72
2024-04-18T17:36:15.142Z,102107.09
2024-04-18T17:38:43.456Z,102111.56
2024-04-18T17:41:10.134Z,102108.75
2024-04-18T17:43:36.820Z,102103.91
2024-04-18T17:46:03.744Z,102102.28
2024-04-18T17:48:30.684Z,102089.25
2024-04-18T17:50:57.674Z,102094.56
2024-04-18T17:53:24.316Z,102085.38
2024-04-18T17:55:52.042Z,102090.91
2024-04-18T17:58:20.809Z,102090.03
2024-04-18T18:00:47.579Z,102079.59
2024-04-18T18:03:14.442Z,102093.38
2024-04-18T18:05:43.190Z,102082.22
2024-04-18T18:08:09.883Z,102076.22
2024-04-18T18:10:36.596Z,102080.56
2024-04-18T18:13:03.757Z,102079.16
2024-04-18T18:15:30.485Z,102077.81
2024-04-18T18:17:57.792Z,102074.41
2024-04-18T18:20:24.499Z,102075.47
2024-04-18T18:22:51.720Z,102087.94
2024-04-18T18:25:18.355Z,102075.16
2024-04-18T18:27:45.038Z,102071.72
2024-04-18T18:30:11.880Z,102062.09
2024-04-18T18:32:38.654Z,102072.69
2024-04-18T18:35:06.890Z,102074.81
2024-04-18T18:37:33.585Z,102065.25
2024-04-18T18:40:00.327Z,102065.53
2024-04-18T18:42:27.043Z,102065.69
2024-04-18T18:44:53.655Z,102056.09
2024-04-18T18:47:20.493Z,102064.25
2024-04-18T18:49:47.217Z,102060.19
2024-04-18T18:52:13.895Z,102059.41
2024-04-18T18:54:40.873Z,102064.69
2024-04-18T18:57:08.605Z,102061.47
2024-04-18T18:59:35.499Z,102059.75
2024-04-18T19:02:02.214Z,102055.50
2024-04-18T19:04:29.088Z,102057.47
2024-04-18T19:06:55.943Z,102054.94
2024-04-18T19:09:23.703Z,102057.69
2024-04-18T19:11:51.107Z,102058.75
2024-04-18T19:14:18.043Z,102059.81
2024-04-18T19:16:44.813Z,102054.66
2024-04-18T19:19:11.562Z,102041.63
2024-04-18T19:21:38.259Z,102044.41
2024-04-18T19:24:05.117Z,102040.84
2024-04-18T19:26:32.493Z,102043.78
2024-04-18T19:28:59.142Z,102044.03
2024-04-18T19:31:26.038Z,102025.59
2024-04-18T19:33:53.065Z,102038.03
2024-04-18T19:36:20.630Z,102026.88
2024-04-18T19:38:47.587Z,102025.16
2024-04-18T19:41:14.331Z,102025.16
2024-04-18T19:43:41.031Z,102019.16
2024-04-18T19:46:07.749Z,102013.03
2024-04-18T19:48:34.679Z,102015.00
2024-04-18T19:51:01.432Z,102004.31
2024-04-18T19:53:28.094Z,102001.59
2024-04-18T19:55:58.480Z,102000.72
2024-04-18T19:58:25.239Z,101995.69
2024-04-18T20:00:52.168Z,101992.16
2024-04-18T20:03:19.442Z,101993.00
2024-04-18T20:05:46.336Z,101985.13
2024-04-18T20:08:13.127Z,101981.69
2024-04-18T20:10:39.864Z,101978.25
2024-04-18T20:13:06.614Z,101990.56
2024-04-18T20:15:33.557Z,101977.47
2024-04-18T20:18:01.101Z,101968.75
2024-04-18T20:20:27.967Z,101964.34
2024-04-18T20:22:55.205Z,101962.69
2024-04-18T20:25:21.992Z,101952.28
2024-04-18T20:27:49.529Z,101954.13
2024-04-18T20:30:16.642Z,101941.19
2024-04-18T20:32:43.801Z,101942.91
2024-04-18T20:35:11.257Z,101935.06
2024-04-18T20:37:38.174Z,101932.47
2024-04-18T20:40:05.326Z,101924.59
2024-04-18T20:42:31.988Z,101915.81
2024-04-18T20:44:59.295Z,101913.25
2024-04-18T20:47:26.584Z,101904.63
2024-04-18T20:49:53.324Z,101897.53
2024-04-18T20:52:19.989Z,101894.97
2024-04-18T20:54:46.748Z,101902.84
2024-04-18T20:57:13.467Z,101908.19
2024-04-18T20:59:42.449Z,101897.59
2024-04-18T21:02:10.155Z,101898.47
2024-04-18T21:04:37.129Z,101894.06
2024-04-18T21:07:03.845Z,101889.69
2024-04-18T21:09:30.542Z,101883.63
2024-04-18T21:11:57.259Z,101889.69
2024-04-18T21:14:23.852Z,101877.41
2024-04-18T21:16:50.469Z,101875.69
2024-04-18T21:19:21.014Z,101882.69
2024-04-18T21:21:48.715Z,101885.25
2024-04-18T21:24:15.561Z,101880.97
2024-04-18T21:26:42.449Z,101886.25
2024-04-18T21:29:09.119Z,101884.41
2024-04-18T21:31:35.988Z,101880.84
2024-04-18T21:34:02.822Z,101865.00
2024-04-18T21:36:29.598Z,101861.47
2024-04-18T21:39:00.269Z,101854.44
2024-04-18T21:41:28.767Z,101852.72
2024-04-18T21:43:56.190Z,101857.09
2024-04-18T21:46:22.957Z,101843.00
2024-04-18T21:48:49.897Z,101836.88
2024-04-18T21:51:16.720Z,101837.72
2024-04-18T21:53:43.372Z,101821.88
2024-04-18T21:56:10.535Z,101820.88
2024-04-18T21:58:37.464Z,101807.59
2024-04-18T22:01:04.483Z,101804.09
2024-04-18T22:03:31.399Z,101800.59
2024-04-18T22:05:59.086Z,101789.25
2024-04-18T22:08:26.030Z,101779.59
2024-04-18T22:10:52.784Z,101775.25
2024-04-18T22:13:19.968Z,101775.19
2024-04-18T22:15:46.692Z,101761.13
2024-04-18T22:18:13.475Z,101744.41
2024-04-18T22:20:40.346Z,101749.88
2024-04-18T22:23:07.373Z,101744.81
2024-04-18T22:25:34.142Z,101751.06
2024-04-18T22:28:00.924Z,101758.19
2024-04-18T22:30:27.674Z,101735.78
2024-04-18T22:32:54.615Z,101742.06
2024-04-18T22:35:21.338Z,101733.59
2024-04-18T22:37:48.055Z,101724.94
2024-04-18T22:40:14.799Z,101728.75
2024-04-18T22:42:41.732Z,101721.22
2024-04-18T22:45:08.820Z,101714.09
2024-04-18T22:47:35.610Z,101719.66
2024-04-18T22:50:02.362Z,101698.81
2024-04-18T22:52:29.221Z,101684.84
2024-04-18T22:54:56.002Z,101676.13
2024-04-18T22:57:22.834Z,101669.16
2024-04-18T22:59:49.922Z,101662.94
2024-04-18T23:02:16.970Z,101663.09
2024-04-18T23:04:43.863Z,101656.13
2024-04-18T23:07:10.792Z,101644.78
2024-04-18T23:09:37.693Z,101641.22
2024-04-18T23:12:04.721Z,101635.03
2024-04-18T23:14:31.393Z,101626.16
2024-04-18T23:16:57.999Z,101628.97
2024-04-18T23:19:24.645Z,101621.84
2024-04-18T23:21:51.279Z,101612.97
2024-04-18T23:24:17.933Z,101606.91
2024-04-18T23:26:44.647Z,101612.19
2024-04-18T23:29:11.355Z,101607.84
2024-04-18T23:31:38.047Z,101600.63
2024-04-18T23:34:04.771Z,101600.72
2024-04-18T23:36:31.488Z,101591.03
2024-04-18T23:38:58.165Z,101587.53
2024-04-18T23:41:24.768Z,101577.06
2024-04-18T23:43:51.431Z,101577.00
2024-04-18T23:46:18.175Z,101565.50
2024-04-18T23:48:44.980Z,101569.69
2024-04-18T23:51:11.760Z,101564.41
2024-04-18T23:53:38.419Z,101552.94
2024-04-18T23:56:05.431Z,101549.31
2024-04-18T23:58:32.204Z,101550.94
